Time;durP1;ratioP1;P1;durP2;ratioP2;P2;SDS_P1;SDS_P2;PMS_P1;PMS_P2;Temp;Humidity;BMP_temperature;BMP_pressure;BME280_temperature;BME280_humidity;BME280_pressure;Samples;Min_cycle;Max_cycle;Signal;HPM_P1;HPM_P2
2022/12/31 00:01:36;;;;;;;8.65;3.50;;;;;;;;;;5107083;28;20463;-69
2022/12/31 00:04:02;;;;;;;8.65;3.40;;;;;;;;;;5099653;28;20402;-68
2022/12/31 00:06:31;;;;;;;9.07;3.67;;;;;;;;;;5093407;28;20048;-67
2022/12/31 00:08:57;;;;;;;7.68;3.78;;;;;;;;;;5093525;28;20418;-68
2022/12/31 00:11:24;;;;;;;8.10;4.50;;;;;;;;;;5102235;28;20137;-68
2022/12/31 00:13:50;;;;;;;7.78;4.03;;;;;;;;;;5102857;28;20063;-68
2022/12/31 00:16:24;;;;;;;9.23;3.60;;;;;;;;;;5102095;28;20040;-68
2022/12/31 00:18:52;;;;;;;7.57;4.40;;;;;;;;;;5093824;28;20039;-68
2022/12/31 00:21:18;;;;;;;10.57;4.70;;;;;;;;;;5098601;27;20043;-68
2022/12/31 00:23:44;;;;;;;15.45;5.20;;;;;;;;;;5110768;28;20397;-67
2022/12/31 00:26:15;;;;;;;10.73;5.18;;;;;;;;;;5103059;28;20412;-68
2022/12/31 00:28:41;;;;;;;11.52;6.22;;;;;;;;;;5114098;28;20047;-68
2022/12/31 00:31:09;;;;;;;10.25;4.97;;;;;;;;;;5113008;28;20051;-68
2022/12/31 00:33:35;;;;;;;8.10;4.85;;;;;;;;;;5102688;27;20051;-68
2022/12/31 00:36:09;;;;;;;11.95;5.55;;;;;;;;;;5107612;28;20047;-68
2022/12/31 00:38:36;;;;;;;11.25;5.20;;;;;;;;;;5102809;28;20040;-69
2022/12/31 00:41:02;;;;;;;12.70;5.78;;;;;;;;;;5105545;28;20040;-68
2022/12/31 00:43:28;;;;;;;10.45;5.47;;;;;;;;;;5105476;28;20480;-68
2022/12/31 00:45:54;;;;;;;12.73;6.35;;;;;;;;;;5093167;28;20036;-69
2022/12/31 00:48:21;;;;;;;9.75;4.95;;;;;;;;;;5107392;28;20044;-68
2022/12/31 00:50:47;;;;;;;9.50;4.97;;;;;;;;;;5098152;28;20055;-68
2022/12/31 00:53:13;;;;;;;12.07;5.15;;;;;;;;;;5106666;27;20059;-68
2022/12/31 00:55:39;;;;;;;13.55;5.13;;;;;;;;;;5105650;28;20044;-69
2022/12/31 00:58:05;;;;;;;10.48;5.13;;;;;;;;;;5094145;28;20044;-68
2022/12/31 01:00:31;;;;;;;10.52;5.13;;;;;;;;;;5105424;28;20104;-69
2022/12/31 01:02:57;;;;;;;11.13;5.78;;;;;;;;;;5107252;28;20482;-68
2022/12/31 01:05:23;;;;;;;9.80;5.10;;;;;;;;;;5094085;28;20093;-69
2022/12/31 01:07:49;;;;;;;10.68;4.75;;;;;;;;;;5104383;28;20105;-68
2022/12/31 01:11:17;;;;;;;9.73;4.70;;;;;;;;;;5108853;28;20040;-68
2022/12/31 01:13:01;;;;;;;12.32;5.00;;;;;;;;;;5110563;28;20092;-68
2022/12/31 01:15:27;;;;;;;10.77;4.88;;;;;;;;;;5111323;28;20031;-68
2022/12/31 01:17:54;;;;;;;11.63;4.53;;;;;;;;;;5109740;28;20523;-68
2022/12/31 01:20:20;;;;;;;9.85;4.35;;;;;;;;;;5111713;28;20421;-68
2022/12/31 01:22:46;;;;;;;8.30;4.63;;;;;;;;;;5110540;28;20421;-68
2022/12/31 01:25:12;;;;;;;11.60;4.90;;;;;;;;;;5105188;28;20403;-69
2022/12/31 01:27:38;;;;;;;11.57;5.05;;;;;;;;;;5091473;28;20047;-68
2022/12/31 01:30:04;;;;;;;10.75;4.88;;;;;;;;;;5093052;28;20051;-68
2022/12/31 01:32:30;;;;;;;12.25;4.93;;;;;;;;;;5116782;28;20035;-68
2022/12/31 01:34:57;;;;;;;9.25;4.40;;;;;;;;;;5111718;28;20511;-69
2022/12/31 01:37:23;;;;;;;11.15;4.63;;;;;;;;;;5112544;28;20059;-69
2022/12/31 01:39:49;;;;;;;10.57;4.63;;;;;;;;;;5094701;28;20048;-69
2022/12/31 01:42:15;;;;;;;8.27;4.90;;;;;;;;;;5104058;28;20047;-69
2022/12/31 01:44:41;;;;;;;10.23;4.88;;;;;;;;;;5095449;28;20406;-69
2022/12/31 01:47:12;;;;;;;12.20;4.55;;;;;;;;;;5093268;28;20458;-69
2022/12/31 01:49:40;;;;;;;9.68;5.15;;;;;;;;;;5106732;28;20490;-69
2022/12/31 01:52:11;;;;;;;9.45;4.82;;;;;;;;;;5116843;28;20047;-69
2022/12/31 01:54:40;;;;;;;9.40;4.40;;;;;;;;;;5103923;27;20040;-69
2022/12/31 01:57:07;;;;;;;8.05;4.00;;;;;;;;;;5102587;28;20084;-69
2022/12/31 01:59:33;;;;;;;8.55;4.38;;;;;;;;;;5095931;28;20131;-69
2022/12/31 02:02:00;;;;;;;10.55;4.55;;;;;;;;;;5117381;28;20390;-69
2022/12/31 02:04:26;;;;;;;14.52;4.90;;;;;;;;;;5101829;27;20045;-69
2022/12/31 02:07:00;;;;;;;10.45;4.57;;;;;;;;;;5092578;28;20055;-69
2022/12/31 02:09:26;;;;;;;9.48;4.03;;;;;;;;;;5095021;28;20494;-69
2022/12/31 02:11:52;;;;;;;9.52;4.43;;;;;;;;;;5112473;28;20043;-69
2022/12/31 02:14:21;;;;;;;7.75;4.15;;;;;;;;;;5109402;27;20047;-68
2022/12/31 02:16:47;;;;;;;9.02;4.13;;;;;;;;;;5112331;28;20094;-69
2022/12/31 02:19:32;;;;;;;10.27;3.95;;;;;;;;;;5110622;28;20386;-70
2022/12/31 02:22:14;;;;;;;9.55;4.55;;;;;;;;;;5107267;28;20036;-69
2022/12/31 02:24:59;;;;;;;8.50;4.30;;;;;;;;;;5102488;28;20075;-69
2022/12/31 02:27:32;;;;;;;10.68;4.03;;;;;;;;;;5098332;28;20035;-69
2022/12/31 02:30:10;;;;;;;10.38;4.30;;;;;;;;;;5109002;28;20501;-69
2022/12/31 02:32:36;;;;;;;8.38;3.53;;;;;;;;;;5113705;27;20058;-69
2022/12/31 02:35:08;;;;;;;9.05;3.97;;;;;;;;;;5113105;28;20379;-69
2022/12/31 02:37:35;;;;;;;8.63;3.50;;;;;;;;;;5096952;28;20043;-69
2022/12/31 02:40:01;;;;;;;8.07;3.47;;;;;;;;;;5114761;27;20043;-69
2022/12/31 02:42:27;;;;;;;6.55;2.92;;;;;;;;;;5114438;28;20040;-69
2022/12/31 02:44:53;;;;;;;8.23;3.13;;;;;;;;;;5095305;28;20378;-69
2022/12/31 02:47:19;;;;;;;8.65;3.20;;;;;;;;;;5115725;27;20061;-68
2022/12/31 02:50:02;;;;;;;6.25;2.97;;;;;;;;;;5115290;27;20046;-69
2022/12/31 02:52:31;;;;;;;6.13;2.50;;;;;;;;;;5095653;28;20048;-69
2022/12/31 02:55:09;;;;;;;6.00;2.30;;;;;;;;;;5095759;28;20638;-69
2022/12/31 02:57:35;;;;;;;6.28;2.30;;;;;;;;;;5095503;28;20043;-69
2022/12/31 03:02:51;;;;;;;5.55;1.60;;;;;;;;;;5122349;27;20059;-69
2022/12/31 03:05:19;;;;;;;4.90;1.52;;;;;;;;;;5097007;28;20040;-68
2022/12/31 03:07:45;;;;;;;3.38;1.50;;;;;;;;;;5094895;28;20040;-68
2022/12/31 03:10:11;;;;;;;5.10;1.48;;;;;;;;;;5134918;27;20035;-68
2022/12/31 03:12:46;;;;;;;3.65;1.20;;;;;;;;;;5095269;28;20048;-68
2022/12/31 03:15:20;;;;;;;5.40;1.08;;;;;;;;;;5114042;28;20047;-69
2022/12/31 03:17:52;;;;;;;4.28;1.25;;;;;;;;;;5096380;28;20089;-68
2022/12/31 03:23:04;;;;;;;3.88;1.02;;;;;;;;;;5110559;28;20039;-68
2022/12/31 03:25:40;;;;;;;4.65;1.05;;;;;;;;;;5094624;28;20079;-68
2022/12/31 03:28:10;;;;;;;3.97;1.13;;;;;;;;;;5097688;27;20274;-68
2022/12/31 03:30:37;;;;;;;4.20;1.02;;;;;;;;;;5113853;28;20039;-68
2022/12/31 03:33:04;;;;;;;4.88;1.20;;;;;;;;;;5113888;27;20390;-68
2022/12/31 03:35:32;;;;;;;3.50;1.13;;;;;;;;;;5105819;28;20040;-68
2022/12/31 03:37:58;;;;;;;4.55;1.40;;;;;;;;;;5094349;28;20414;-68
2022/12/31 03:40:25;;;;;;;5.95;1.25;;;;;;;;;;5100012;28;20123;-68
2022/12/31 03:42:51;;;;;;;4.65;1.27;;;;;;;;;;5098706;28;20043;-69
2022/12/31 03:45:18;;;;;;;3.55;1.25;;;;;;;;;;5112744;27;20117;-68
2022/12/31 03:47:44;;;;;;;4.65;1.17;;;;;;;;;;5101104;28;20043;-68
2022/12/31 03:50:11;;;;;;;4.80;1.50;;;;;;;;;;5111841;28;20402;-68
2022/12/31 03:52:37;;;;;;;5.82;1.60;;;;;;;;;;5094251;28;20040;-68
2022/12/31 03:55:03;;;;;;;6.10;1.60;;;;;;;;;;5113672;28;20044;-68
2022/12/31 03:57:30;;;;;;;4.60;1.70;;;;;;;;;;5094852;28;20516;-68
2022/12/31 03:59:56;;;;;;;5.90;1.60;;;;;;;;;;5100743;28;20035;-68
2022/12/31 04:02:22;;;;;;;6.45;1.90;;;;;;;;;;5094683;28;20091;-68
2022/12/31 04:04:48;;;;;;;7.13;1.80;;;;;;;;;;5096505;28;20043;-68
2022/12/31 04:07:14;;;;;;;6.57;2.00;;;;;;;;;;5098517;28;20527;-68
2022/12/31 04:09:40;;;;;;;7.05;2.65;;;;;;;;;;5108526;28;20043;-68
2022/12/31 04:12:06;;;;;;;7.15;2.75;;;;;;;;;;5100741;28;20044;-68
2022/12/31 04:14:32;;;;;;;6.35;2.70;;;;;;;;;;5094982;28;20044;-68
2022/12/31 04:16:58;;;;;;;6.97;3.00;;;;;;;;;;5112014;28;20094;-68
2022/12/31 04:19:24;;;;;;;6.75;3.08;;;;;;;;;;5109657;28;20036;-68
2022/12/31 04:21:50;;;;;;;6.20;3.20;;;;;;;;;;5097285;28;20036;-68
2022/12/31 04:24:17;;;;;;;6.75;3.15;;;;;;;;;;5113519;28;20081;-68
2022/12/31 04:26:43;;;;;;;5.70;3.03;;;;;;;;;;5112087;28;20055;-68
2022/12/31 04:29:09;;;;;;;7.97;3.40;;;;;;;;;;5116582;27;20047;-68
2022/12/31 04:31:35;;;;;;;7.82;3.47;;;;;;;;;;5109053;28;20080;-68
2022/12/31 04:34:01;;;;;;;7.20;3.67;;;;;;;;;;5100525;28;20516;-68
2022/12/31 04:36:27;;;;;;;8.43;3.55;;;;;;;;;;5110472;28;20047;-68
2022/12/31 04:38:53;;;;;;;8.25;3.13;;;;;;;;;;5116640;27;20036;-68
2022/12/31 04:41:20;;;;;;;6.40;3.20;;;;;;;;;;5096431;28;20035;-68
2022/12/31 04:43:56;;;;;;;7.07;2.88;;;;;;;;;;5098419;28;20044;-68
2022/12/31 04:46:24;;;;;;;6.57;3.00;;;;;;;;;;5111695;28;20047;-68
2022/12/31 04:48:50;;;;;;;9.15;3.50;;;;;;;;;;5115849;27;20158;-68
2022/12/31 04:51:16;;;;;;;6.65;2.88;;;;;;;;;;5113408;27;20051;-70
2022/12/31 04:53:42;;;;;;;10.23;2.92;;;;;;;;;;5113499;28;20047;-68
2022/12/31 04:56:08;;;;;;;5.95;2.80;;;;;;;;;;5111610;28;20040;-68
2022/12/31 04:58:35;;;;;;;6.93;2.80;;;;;;;;;;5095960;28;20036;-70
2022/12/31 05:01:01;;;;;;;6.20;2.45;;;;;;;;;;5111539;28;20051;-68
2022/12/31 05:03:28;;;;;;;8.27;2.08;;;;;;;;;;5098287;28;20079;-68
2022/12/31 05:06:00;;;;;;;7.65;2.58;;;;;;;;;;5107777;28;20063;-68
2022/12/31 05:08:26;;;;;;;4.65;1.80;;;;;;;;;;5100543;28;20036;-68
2022/12/31 05:10:52;;;;;;;5.28;1.67;;;;;;;;;;5113620;27;20055;-69
2022/12/31 05:13:18;;;;;;;8.18;2.20;;;;;;;;;;5100887;28;20040;-68
2022/12/31 05:15:45;;;;;;;6.00;1.95;;;;;;;;;;5105592;28;20040;-69
2022/12/31 05:18:11;;;;;;;7.80;2.17;;;;;;;;;;5098554;28;20990;-69
2022/12/31 05:20:37;;;;;;;7.70;1.73;;;;;;;;;;5121498;28;20389;-69
2022/12/31 05:23:03;;;;;;;5.30;1.70;;;;;;;;;;5108364;28;20036;-69
2022/12/31 05:25:30;;;;;;;6.25;1.90;;;;;;;;;;5094607;28;20047;-68
2022/12/31 05:27:56;;;;;;;7.50;1.92;;;;;;;;;;5111051;28;20039;-69
2022/12/31 05:30:22;;;;;;;7.13;2.10;;;;;;;;;;5106624;28;20386;-69
2022/12/31 05:32:48;;;;;;;5.75;1.80;;;;;;;;;;5108361;28;20043;-68
2022/12/31 05:35:14;;;;;;;6.53;2.00;;;;;;;;;;5096516;28;20048;-69
2022/12/31 05:37:40;;;;;;;7.97;2.05;;;;;;;;;;5111936;28;20046;-68
2022/12/31 05:40:07;;;;;;;6.70;1.80;;;;;;;;;;5109978;28;20048;-68
2022/12/31 05:42:33;;;;;;;11.65;2.30;;;;;;;;;;5093121;28;20464;-69
2022/12/31 05:44:59;;;;;;;7.57;1.77;;;;;;;;;;5105689;28;20055;-69
2022/12/31 05:47:25;;;;;;;8.38;2.15;;;;;;;;;;5104976;28;20044;-69
2022/12/31 05:49:51;;;;;;;5.65;2.05;;;;;;;;;;5106836;28;20040;-69
2022/12/31 05:52:18;;;;;;;9.00;2.72;;;;;;;;;;5117570;28;20547;-68
2022/12/31 05:54:44;;;;;;;7.97;2.20;;;;;;;;;;5097289;28;20486;-69
2022/12/31 05:57:11;;;;;;;7.63;2.65;;;;;;;;;;5107363;28;20039;-68
2022/12/31 05:59:37;;;;;;;7.57;2.53;;;;;;;;;;5111099;28;20108;-69
2022/12/31 06:02:03;;;;;;;7.70;2.80;;;;;;;;;;5109426;28;20052;-68
2022/12/31 06:04:29;;;;;;;6.97;3.25;;;;;;;;;;5109300;28;20051;-69
2022/12/31 06:06:55;;;;;;;7.05;3.70;;;;;;;;;;5091751;28;20401;-68
2022/12/31 06:09:21;;;;;;;7.60;4.10;;;;;;;;;;5100864;28;20050;-69
2022/12/31 06:11:48;;;;;;;7.47;4.38;;;;;;;;;;5097116;28;20040;-68
2022/12/31 06:14:14;;;;;;;8.40;4.70;;;;;;;;;;5108229;28;20055;-69
2022/12/31 06:16:40;;;;;;;7.93;5.03;;;;;;;;;;5102188;28;20047;-68
2022/12/31 06:19:06;;;;;;;8.52;4.90;;;;;;;;;;5104768;27;20064;-68
2022/12/31 06:21:32;;;;;;;9.23;5.15;;;;;;;;;;5119820;27;20512;-68
2022/12/31 06:23:58;;;;;;;7.30;4.47;;;;;;;;;;5103602;28;20047;-68
2022/12/31 06:26:25;;;;;;;8.63;4.20;;;;;;;;;;5107128;28;20040;-68
2022/12/31 06:28:51;;;;;;;6.43;4.30;;;;;;;;;;5113539;28;20044;-68
2022/12/31 06:31:17;;;;;;;7.13;4.20;;;;;;;;;;5105983;28;20048;-69
2022/12/31 06:33:45;;;;;;;6.75;4.07;;;;;;;;;;5095849;28;20044;-68
2022/12/31 06:36:12;;;;;;;9.70;3.85;;;;;;;;;;5105717;28;20040;-69
2022/12/31 06:38:39;;;;;;;8.35;3.92;;;;;;;;;;5106942;28;20052;-68
2022/12/31 06:41:10;;;;;;;6.50;3.88;;;;;;;;;;5120006;27;20125;-68
2022/12/31 06:43:36;;;;;;;8.85;4.15;;;;;;;;;;5100274;28;20067;-68
2022/12/31 06:46:03;;;;;;;6.38;3.35;;;;;;;;;;5110615;28;20389;-69
2022/12/31 06:48:29;;;;;;;6.53;3.63;;;;;;;;;;5106875;28;20035;-69
2022/12/31 06:50:55;;;;;;;6.55;3.40;;;;;;;;;;5118307;27;20401;-68
2022/12/31 06:53:21;;;;;;;6.13;3.60;;;;;;;;;;5095348;28;20411;-69
2022/12/31 06:55:48;;;;;;;5.68;3.05;;;;;;;;;;5105019;28;20435;-68
2022/12/31 06:58:15;;;;;;;6.63;3.30;;;;;;;;;;5107180;28;20100;-69
2022/12/31 07:00:44;;;;;;;7.22;3.42;;;;;;;;;;5110821;27;20040;-69
2022/12/31 07:03:27;;;;;;;6.03;3.28;;;;;;;;;;5115429;27;20043;-68
2022/12/31 07:05:58;;;;;;;7.80;3.45;;;;;;;;;;5098892;28;20043;-69
2022/12/31 07:08:37;;;;;;;6.82;3.40;;;;;;;;;;5093854;28;20048;-69
2022/12/31 07:11:09;;;;;;;5.75;3.17;;;;;;;;;;5102821;28;20041;-68
2022/12/31 07:13:44;;;;;;;8.02;3.55;;;;;;;;;;5109360;28;20086;-68
2022/12/31 07:16:23;;;;;;;6.57;3.50;;;;;;;;;;5106542;28;20040;-69
2022/12/31 07:19:01;;;;;;;5.22;3.10;;;;;;;;;;5114509;28;20055;-69
2022/12/31 07:21:38;;;;;;;8.00;3.47;;;;;;;;;;5108214;28;20562;-68
2022/12/31 07:24:05;;;;;;;6.68;3.47;;;;;;;;;;5103331;28;20052;-69
2022/12/31 07:26:31;;;;;;;6.10;3.25;;;;;;;;;;5103155;28;20101;-68
2022/12/31 07:28:57;;;;;;;6.82;3.97;;;;;;;;;;5113158;28;20039;-68
2022/12/31 07:31:34;;;;;;;6.75;3.83;;;;;;;;;;5111689;28;20048;-69
2022/12/31 07:34:03;;;;;;;8.07;3.83;;;;;;;;;;5114210;27;20051;-69
2022/12/31 07:36:42;;;;;;;6.47;3.60;;;;;;;;;;5107996;28;20040;-69
2022/12/31 07:39:10;;;;;;;8.32;4.20;;;;;;;;;;5095728;28;20457;-69
2022/12/31 07:41:36;;;;;;;7.43;3.72;;;;;;;;;;5110432;27;20103;-69
2022/12/31 07:44:07;;;;;;;5.80;3.67;;;;;;;;;;5113890;27;20039;-69
2022/12/31 07:46:45;;;;;;;7.35;4.32;;;;;;;;;;5112181;27;20485;-69
2022/12/31 07:49:11;;;;;;;5.78;3.83;;;;;;;;;;5109000;28;20044;-69
2022/12/31 07:51:38;;;;;;;8.15;4.20;;;;;;;;;;5114635;28;20040;-69
2022/12/31 07:54:04;;;;;;;6.28;3.22;;;;;;;;;;5113987;28;20063;-69
2022/12/31 07:56:30;;;;;;;6.22;3.45;;;;;;;;;;5114260;28;20087;-69
2022/12/31 07:59:06;;;;;;;5.93;3.33;;;;;;;;;;5111259;27;20044;-69
2022/12/31 08:01:41;;;;;;;5.03;2.92;;;;;;;;;;5111472;27;20052;-69
2022/12/31 08:04:09;;;;;;;6.07;3.38;;;;;;;;;;5107751;27;20496;-69
2022/12/31 08:06:35;;;;;;;6.55;3.10;;;;;;;;;;5112034;27;20172;-69
2022/12/31 08:09:31;;;;;;;5.25;2.80;;;;;;;;;;5111709;27;20039;-72
2022/12/31 08:12:00;;;;;;;6.18;2.83;;;;;;;;;;5104643;28;20058;-69
2022/12/31 08:14:28;;;;;;;4.90;2.58;;;;;;;;;;5111625;27;20042;-70
2022/12/31 08:16:54;;;;;;;4.95;2.67;;;;;;;;;;5087955;28;20044;-68
2022/12/31 08:19:29;;;;;;;5.43;3.00;;;;;;;;;;5094898;27;20040;-70
2022/12/31 08:22:10;;;;;;;5.88;2.65;;;;;;;;;;5109721;27;20043;-72
2022/12/31 08:24:55;;;;;;;6.05;3.20;;;;;;;;;;5098285;27;20048;-70
2022/12/31 08:27:27;;;;;;;5.82;3.25;;;;;;;;;;5100112;27;20097;-71
2022/12/31 08:30:01;;;;;;;6.28;3.38;;;;;;;;;;5110989;28;20051;-69
2022/12/31 08:32:46;;;;;;;9.38;3.47;;;;;;;;;;5109131;27;20047;-68
2022/12/31 08:35:15;;;;;;;7.30;3.78;;;;;;;;;;5110917;28;20044;-69
2022/12/31 08:37:50;;;;;;;8.70;3.97;;;;;;;;;;5112021;27;20042;-69
2022/12/31 08:40:25;;;;;;;9.93;3.85;;;;;;;;;;5109454;28;20389;-72
2022/12/31 08:43:13;;;;;;;6.28;4.18;;;;;;;;;;5102372;28;20055;-71
2022/12/31 08:45:46;;;;;;;8.68;4.13;;;;;;;;;;5099852;28;20035;-70
2022/12/31 08:48:31;;;;;;;7.72;4.03;;;;;;;;;;5105457;27;20039;-71
2022/12/31 08:50:58;;;;;;;7.68;3.95;;;;;;;;;;5099487;28;20092;-71
2022/12/31 08:53:24;;;;;;;7.30;3.90;;;;;;;;;;5095550;27;20509;-68
2022/12/31 08:55:55;;;;;;;6.68;4.60;;;;;;;;;;5101531;28;20374;-71
2022/12/31 08:58:34;;;;;;;7.93;4.07;;;;;;;;;;5100813;28;20454;-70
2022/12/31 09:01:01;;;;;;;9.27;3.53;;;;;;;;;;5096265;27;20561;-67
2022/12/31 09:03:29;;;;;;;6.82;3.90;;;;;;;;;;5095809;28;20055;-70
2022/12/31 09:06:02;;;;;;;5.78;3.63;;;;;;;;;;5098225;27;20044;-70
2022/12/31 09:08:28;;;;;;;7.85;4.05;;;;;;;;;;5103193;27;20090;-68
2022/12/31 09:11:06;;;;;;;5.60;3.53;;;;;;;;;;5094501;28;20123;-69
2022/12/31 09:13:41;;;;;;;6.35;3.55;;;;;;;;;;5101862;28;20043;-69
2022/12/31 09:16:26;;;;;;;6.55;3.67;;;;;;;;;;5102579;27;20063;-69
2022/12/31 09:18:52;;;;;;;5.97;3.92;;;;;;;;;;5107965;28;20075;-70
2022/12/31 09:21:18;;;;;;;7.75;5.20;;;;;;;;;;5106445;28;20048;-70
2022/12/31 09:23:44;;;;;;;11.35;8.80;;;;;;;;;;5092164;28;20496;-71
2022/12/31 09:26:40;;;;;;;8.00;5.35;;;;;;;;;;5107152;28;20043;-70
2022/12/31 09:29:09;;;;;;;9.43;4.32;;;;;;;;;;5102416;28;20497;-70
2022/12/31 09:31:50;;;;;;;8.05;3.63;;;;;;;;;;5110563;28;20071;-70
2022/12/31 09:34:19;;;;;;;9.05;4.15;;;;;;;;;;5101255;28;20485;-69
2022/12/31 09:36:51;;;;;;;6.32;2.65;;;;;;;;;;5105979;28;20040;-68
2022/12/31 09:39:17;;;;;;;;;;;;;;;;;;5111554;28;20108;-69
2022/12/31 09:42:02;;;;;;;4.95;2.10;;;;;;;;;;5108417;28;19920;-69
2022/12/31 09:44:30;;;;;;;8.90;2.72;;;;;;;;;;5113747;28;20047;-69
2022/12/31 09:47:24;;;;;;;4.97;2.20;;;;;;;;;;5110714;27;20051;-69
2022/12/31 09:50:03;;;;;;;3.95;1.70;;;;;;;;;;5119720;27;20066;-69
2022/12/31 09:52:41;;;;;;;6.43;2.65;;;;;;;;;;5109619;27;20126;-69
2022/12/31 09:55:07;;;;;;;7.32;2.10;;;;;;;;;;5112420;27;20039;-69
2022/12/31 09:57:39;;;;;;;5.63;2.10;;;;;;;;;;5109284;27;20043;-69
2022/12/31 10:00:05;;;;;;;7.28;1.65;;;;;;;;;;5105791;27;20051;-69
2022/12/31 10:02:50;;;;;;;5.43;2.10;;;;;;;;;;5107742;28;20088;-69
2022/12/31 10:05:22;;;;;;;5.32;2.60;;;;;;;;;;5114617;27;20047;-69
2022/12/31 10:07:59;;;;;;;5.28;1.77;;;;;;;;;;5114719;27;20059;-69
2022/12/31 10:10:28;;;;;;;4.45;1.60;;;;;;;;;;5113229;28;20048;-69
2022/12/31 10:13:01;;;;;;;4.90;2.25;;;;;;;;;;5110997;28;20047;-69
2022/12/31 10:15:46;;;;;;;5.78;3.20;;;;;;;;;;5099207;27;20039;-68
2022/12/31 10:18:31;;;;;;;5.05;2.00;;;;;;;;;;5104654;28;20062;-69
2022/12/31 10:21:16;;;;;;;4.10;1.63;;;;;;;;;;5104674;28;20036;-69
2022/12/31 10:24:01;;;;;;;4.75;1.80;;;;;;;;;;5104046;27;20442;-69
2022/12/31 10:26:46;;;;;;;6.35;2.00;;;;;;;;;;5104867;27;20081;-69
2022/12/31 10:29:24;;;;;;;6.57;1.83;;;;;;;;;;5101706;28;20185;-68
2022/12/31 10:31:52;;;;;;;4.70;1.63;;;;;;;;;;5109798;27;20059;-69
2022/12/31 10:34:45;;;;;;;4.18;1.60;;;;;;;;;;5107509;27;20036;-68
2022/12/31 10:37:16;;;;;;;4.30;1.48;;;;;;;;;;5092052;27;20039;-69
2022/12/31 10:39:42;;;;;;;6.05;1.70;;;;;;;;;;5113973;28;20421;-69
2022/12/31 10:42:14;;;;;;;8.10;1.92;;;;;;;;;;5112001;28;20378;-69
2022/12/31 10:44:59;;;;;;;6.95;1.85;;;;;;;;;;5104388;28;20132;-69
2022/12/31 10:47:43;;;;;;;4.65;1.80;;;;;;;;;;5115146;28;20089;-69
2022/12/31 10:50:09;;;;;;;5.40;2.28;;;;;;;;;;5115365;28;20439;-69
2022/12/31 10:52:38;;;;;;;6.45;2.47;;;;;;;;;;5113501;28;20486;-69
2022/12/31 10:55:23;;;;;;;7.97;2.55;;;;;;;;;;5112337;27;20035;-68
2022/12/31 10:58:08;;;;;;;6.80;2.08;;;;;;;;;;5116104;27;20047;-69
2022/12/31 11:00:43;;;;;;;5.65;2.28;;;;;;;;;;5096393;28;20093;-69
2022/12/31 11:03:21;;;;;;;5.95;2.22;;;;;;;;;;5111929;27;20124;-69
2022/12/31 11:06:06;;;;;;;5.50;1.90;;;;;;;;;;5126676;27;20044;-69
2022/12/31 11:08:53;;;;;;;8.82;2.33;;;;;;;;;;5095014;28;20046;-69
2022/12/31 11:11:40;;;;;;;9.25;3.50;;;;;;;;;;5107801;28;20037;-69
2022/12/31 11:14:24;;;;;;;6.00;2.45;;;;;;;;;;5134442;27;20035;-69
2022/12/31 11:17:09;;;;;;;7.95;2.50;;;;;;;;;;5112481;28;20136;-69
2022/12/31 11:19:47;;;;;;;5.20;2.45;;;;;;;;;;5096793;28;20040;-69
2022/12/31 11:22:33;;;;;;;7.72;2.90;;;;;;;;;;5094482;28;20117;-69
2022/12/31 11:24:59;;;;;;;6.93;2.55;;;;;;;;;;5109727;28;20054;-69
2022/12/31 11:27:25;;;;;;;7.05;3.33;;;;;;;;;;5099266;27;20044;-69
2022/12/31 11:30:17;;;;;;;6.85;2.90;;;;;;;;;;5113512;28;20085;-69
2022/12/31 11:32:43;;;;;;;8.10;2.83;;;;;;;;;;5114368;28;20059;-69
2022/12/31 11:35:22;;;;;;;5.60;2.70;;;;;;;;;;5114671;28;20058;-69
2022/12/31 11:38:01;;;;;;;8.73;3.30;;;;;;;;;;5107169;27;20128;-69
2022/12/31 11:40:31;;;;;;;9.27;3.65;;;;;;;;;;5120195;27;20055;-69
2022/12/31 11:43:01;;;;;;;6.10;2.72;;;;;;;;;;5112023;28;20453;-70
2022/12/31 11:45:46;;;;;;;9.48;4.38;;;;;;;;;;5107943;27;20108;-70
2022/12/31 11:48:19;;;;;;;10.35;5.72;;;;;;;;;;5125315;27;20043;-70
2022/12/31 11:50:45;;;;;;;9.40;3.80;;;;;;;;;;5113978;28;20044;-69
2022/12/31 11:53:29;;;;;;;8.02;4.10;;;;;;;;;;5104952;28;20036;-69
2022/12/31 11:55:59;;;;;;;8.00;3.22;;;;;;;;;;5105744;28;20477;-70
2022/12/31 11:58:27;;;;;;;7.10;2.67;;;;;;;;;;5115835;27;20497;-70
2022/12/31 12:00:56;;;;;;;6.20;2.55;;;;;;;;;;5114288;28;20048;-71
2022/12/31 12:03:23;;;;;;;7.00;2.70;;;;;;;;;;5104391;28;20048;-70
2022/12/31 12:05:49;;;;;;;7.60;3.40;;;;;;;;;;5108663;28;20044;-71
2022/12/31 12:08:16;;;;;;;7.68;3.75;;;;;;;;;;5101902;28;20109;-70
2022/12/31 12:10:45;;;;;;;8.43;3.83;;;;;;;;;;5093263;28;20101;-70
2022/12/31 12:13:13;;;;;;;7.82;2.90;;;;;;;;;;5109340;27;20035;-70
2022/12/31 12:15:41;;;;;;;6.55;2.70;;;;;;;;;;5101958;27;20082;-69
2022/12/31 12:18:09;;;;;;;6.15;3.50;;;;;;;;;;5120728;27;20100;-69
2022/12/31 12:20:36;;;;;;;7.25;2.33;;;;;;;;;;5113668;28;20035;-69
2022/12/31 12:23:13;;;;;;;7.18;2.03;;;;;;;;;;5112719;28;20058;-69
2022/12/31 12:25:41;;;;;;;5.60;2.03;;;;;;;;;;5111585;28;20051;-69
2022/12/31 12:28:11;;;;;;;5.80;2.33;;;;;;;;;;5093296;28;20048;-69
2022/12/31 12:30:40;;;;;;;6.68;2.50;;;;;;;;;;5093102;28;20051;-70
2022/12/31 12:33:14;;;;;;;7.10;2.22;;;;;;;;;;5109813;28;20044;-69
2022/12/31 12:35:40;;;;;;;6.53;2.45;;;;;;;;;;5110774;28;20051;-69
2022/12/31 12:38:07;;;;;;;6.88;2.90;;;;;;;;;;5118607;27;20048;-69
2022/12/31 12:40:34;;;;;;;7.65;1.92;;;;;;;;;;5092866;28;20055;-69
2022/12/31 12:43:01;;;;;;;6.28;2.40;;;;;;;;;;5097257;28;20050;-69
2022/12/31 12:45:44;;;;;;;6.07;2.22;;;;;;;;;;5111046;28;20082;-69
2022/12/31 12:48:25;;;;;;;6.60;2.15;;;;;;;;;;5096888;28;20031;-69
2022/12/31 12:50:51;;;;;;;9.20;4.65;;;;;;;;;;5112015;28;20056;-68
2022/12/31 12:53:40;;;;;;;5.93;1.92;;;;;;;;;;5105305;28;20040;-69
2022/12/31 12:56:09;;;;;;;6.20;2.17;;;;;;;;;;5092726;28;20040;-69
2022/12/31 12:58:38;;;;;;;7.05;2.78;;;;;;;;;;5105048;27;20039;-69
2022/12/31 13:01:13;;;;;;;9.02;6.03;;;;;;;;;;5115063;27;20158;-69
2022/12/31 13:03:45;;;;;;;7.93;2.10;;;;;;;;;;5113277;28;20426;-69
2022/12/31 13:06:21;;;;;;;5.57;1.65;;;;;;;;;;5112786;28;20505;-69
2022/12/31 13:09:05;;;;;;;4.93;2.50;;;;;;;;;;5112316;28;20043;-69
2022/12/31 13:11:46;;;;;;;6.05;1.80;;;;;;;;;;5111279;28;20473;-69
2022/12/31 13:14:31;;;;;;;4.85;1.90;;;;;;;;;;5110140;28;20084;-70
2022/12/31 13:17:15;;;;;;;6.38;2.80;;;;;;;;;;5110626;28;20119;-69
2022/12/31 13:19:47;;;;;;;3.55;1.55;;;;;;;;;;5102961;28;20494;-69
2022/12/31 13:22:13;;;;;;;6.30;2.70;;;;;;;;;;5092218;28;20450;-69
2022/12/31 13:24:52;;;;;;;6.90;2.85;;;;;;;;;;5094969;28;20521;-69
2022/12/31 13:27:38;;;;;;;6.22;2.92;;;;;;;;;;5092184;28;20066;-70
2022/12/31 13:30:12;;;;;;;6.18;2.70;;;;;;;;;;5101003;28;20122;-70
2022/12/31 13:32:40;;;;;;;6.13;3.08;;;;;;;;;;5111340;28;20123;-70
2022/12/31 13:35:18;;;;;;;6.70;3.20;;;;;;;;;;5112944;28;20043;-70
2022/12/31 13:37:46;;;;;;;6.47;2.50;;;;;;;;;;5111108;28;20040;-69
2022/12/31 13:40:18;;;;;;;6.10;2.22;;;;;;;;;;5103739;28;20044;-70
2022/12/31 13:43:08;;;;;;;6.70;2.50;;;;;;;;;;5092775;28;20048;-70
2022/12/31 13:45:37;;;;;;;9.70;4.15;;;;;;;;;;5111500;28;20043;-70
2022/12/31 13:48:09;;;;;;;8.98;3.92;;;;;;;;;;5109426;28;20071;-70
2022/12/31 13:50:44;;;;;;;7.50;2.47;;;;;;;;;;5105191;28;20051;-70
2022/12/31 13:53:15;;;;;;;6.55;2.97;;;;;;;;;;5111336;28;20066;-70
2022/12/31 13:55:41;;;;;;;;;;;;;;;;;;5112877;28;20036;-70
2022/12/31 13:58:21;;;;;;;6.85;2.03;;;;;;;;;;5109514;28;19974;-70
2022/12/31 14:00:49;;;;;;;6.03;1.92;;;;;;;;;;5109841;28;20449;-69
2022/12/31 14:03:26;;;;;;;5.90;2.75;;;;;;;;;;5112315;28;20047;-70
2022/12/31 14:05:59;;;;;;;7.45;2.80;;;;;;;;;;5103775;28;20040;-69
2022/12/31 14:08:25;;;;;;;9.23;3.58;;;;;;;;;;5103387;28;20047;-70
2022/12/31 14:10:51;;;;;;;9.32;3.38;;;;;;;;;;5111879;28;20046;-69
2022/12/31 14:13:36;;;;;;;10.05;2.50;;;;;;;;;;5103534;28;20110;-69
2022/12/31 14:16:08;;;;;;;10.60;2.92;;;;;;;;;;5093835;28;20043;-69
2022/12/31 14:18:37;;;;;;;20.00;5.22;;;;;;;;;;5101723;28;20469;-70
2022/12/31 14:21:08;;;;;;;8.85;4.07;;;;;;;;;;5107043;28;20051;-69
2022/12/31 14:23:34;;;;;;;;;;;;;;;;;;5100358;28;20058;-69
2022/12/31 14:26:03;;;;;;;6.57;1.90;;;;;;;;;;5104690;28;20365;-69
2022/12/31 14:28:32;;;;;;;4.10;1.40;;;;;;;;;;5112667;28;20036;-69
2022/12/31 14:31:26;;;;;;;3.13;1.20;;;;;;;;;;5111002;28;20044;-69
2022/12/31 14:33:52;;;;;;;4.05;1.60;;;;;;;;;;5104497;27;20058;-69
2022/12/31 14:36:37;;;;;;;4.60;2.03;;;;;;;;;;5107884;28;20482;-70
2022/12/31 14:39:23;;;;;;;6.15;2.97;;;;;;;;;;5113090;27;20398;-69
2022/12/31 14:42:14;;;;;;;7.68;5.38;;;;;;;;;;5099107;28;20517;-70
2022/12/31 14:44:58;;;;;;;7.53;4.20;;;;;;;;;;5096794;28;20044;-70
2022/12/31 14:47:30;;;;;;;8.32;4.97;;;;;;;;;;5101492;28;20040;-70
2022/12/31 14:50:01;;;;;;;5.50;2.53;;;;;;;;;;5109700;28;20075;-71
2022/12/31 14:52:35;;;;;;;9.20;5.63;;;;;;;;;;5105116;28;20059;-70
2022/12/31 14:55:02;;;;;;;8.75;5.07;;;;;;;;;;5111684;27;20436;-70
2022/12/31 14:57:35;;;;;;;11.23;5.53;;;;;;;;;;5097902;27;20040;-71
2022/12/31 15:00:21;;;;;;;18.58;14.43;;;;;;;;;;5108809;28;20163;-70
2022/12/31 15:02:51;;;;;;;16.27;11.15;;;;;;;;;;5100990;28;20056;-70
2022/12/31 15:05:17;;;;;;;10.50;5.10;;;;;;;;;;5106454;28;20079;-71
2022/12/31 15:07:51;;;;;;;8.27;3.85;;;;;;;;;;5107790;28;20048;-70
2022/12/31 15:10:36;;;;;;;9.55;5.40;;;;;;;;;;5107455;28;20051;-70
2022/12/31 15:13:05;;;;;;;10.43;4.43;;;;;;;;;;5094963;28;20048;-71